sensor_id;sensor_type;location;lat;lon;timestamp;P1;durP1;ratioP1;P2;durP2;ratioP2
3767;SDS011;1899;49.966;7.106;2023-08-08T00:01:30;2.97;;;2.10;;
3767;SDS011;1899;49.966;7.106;2023-08-08T00:03:56;4.73;;;2.10;;
3767;SDS011;1899;49.966;7.106;2023-08-08T00:06:21;2.33;;;2.13;;
3767;SDS011;1899;49.966;7.106;2023-08-08T00:08:46;4.77;;;1.83;;
3767;SDS011;1899;49.966;7.106;2023-08-08T00:11:11;2.47;;;2.27;;
3767;SDS011;1899;49.966;7.106;2023-08-08T00:13:37;3.27;;;2.33;;
3767;SDS011;1899;49.966;7.106;2023-08-08T00:16:02;2.37;;;2.17;;
3767;SDS011;1899;49.966;7.106;2023-08-08T00:18:27;2.80;;;2.27;;
3767;SDS011;1899;49.966;7.106;2023-08-08T00:20:53;3.40;;;2.40;;
3767;SDS011;1899;49.966;7.106;2023-08-08T00:23:18;4.43;;;2.10;;
3767;SDS011;1899;49.966;7.106;2023-08-08T00:25:43;2.43;;;1.87;;
3767;SDS011;1899;49.966;7.106;2023-08-08T00:28:08;2.70;;;1.67;;
3767;SDS011;1899;49.966;7.106;2023-08-08T00:30:34;3.93;;;2.10;;
3767;SDS011;1899;49.966;7.106;2023-08-08T00:32:59;1.93;;;1.83;;
3767;SDS011;1899;49.966;7.106;2023-08-08T00:35:24;7.40;;;2.20;;
3767;SDS011;1899;49.966;7.106;2023-08-08T00:37:49;4.67;;;2.40;;
3767;SDS011;1899;49.966;7.106;2023-08-08T00:40:15;2.30;;;1.90;;
3767;SDS011;1899;49.966;7.106;2023-08-08T00:42:40;2.60;;;1.90;;
3767;SDS011;1899;49.966;7.106;2023-08-08T00:45:05;2.10;;;1.90;;
3767;SDS011;1899;49.966;7.106;2023-08-08T00:47:31;3.43;;;2.23;;
3767;SDS011;1899;49.966;7.106;2023-08-08T00:49:57;2.37;;;1.60;;
3767;SDS011;1899;49.966;7.106;2023-08-08T00:52:23;2.20;;;1.87;;
3767;SDS011;1899;49.966;7.106;2023-08-08T00:54:48;2.63;;;1.80;;
3767;SDS011;1899;49.966;7.106;2023-08-08T00:57:13;1.90;;;1.80;;
3767;SDS011;1899;49.966;7.106;2023-08-08T00:59:39;3.40;;;2.23;;
3767;SDS011;1899;49.966;7.106;2023-08-08T01:02:04;1.63;;;1.53;;
3767;SDS011;1899;49.966;7.106;2023-08-08T01:04:29;3.60;;;1.93;;
3767;SDS011;1899;49.966;7.106;2023-08-08T01:07:15;1.97;;;1.80;;
3767;SDS011;1899;49.966;7.106;2023-08-08T01:12:08;2.90;;;2.00;;
3767;SDS011;1899;49.966;7.106;2023-08-08T01:14:36;2.73;;;2.17;;
3767;SDS011;1899;49.966;7.106;2023-08-08T01:17:02;3.33;;;2.23;;
3767;SDS011;1899;49.966;7.106;2023-08-08T01:19:27;2.40;;;2.20;;
3767;SDS011;1899;49.966;7.106;2023-08-08T01:21:53;4.60;;;1.93;;
3767;SDS011;1899;49.966;7.106;2023-08-08T01:24:22;2.37;;;1.83;;
3767;SDS011;1899;49.966;7.106;2023-08-08T01:26:48;2.97;;;2.00;;
3767;SDS011;1899;49.966;7.106;2023-08-08T01:29:14;3.47;;;2.17;;
3767;SDS011;1899;49.966;7.106;2023-08-08T01:31:39;3.13;;;2.13;;
3767;SDS011;1899;49.966;7.106;2023-08-08T01:34:05;3.53;;;2.13;;
3767;SDS011;1899;49.966;7.106;2023-08-08T01:36:42;4.83;;;1.90;;
3767;SDS011;1899;49.966;7.106;2023-08-08T01:39:13;1.83;;;1.73;;
3767;SDS011;1899;49.966;7.106;2023-08-08T01:41:38;2.10;;;1.90;;
3767;SDS011;1899;49.966;7.106;2023-08-08T01:44:04;3.50;;;1.83;;
3767;SDS011;1899;49.966;7.106;2023-08-08T01:46:31;2.07;;;1.97;;
3767;SDS011;1899;49.966;7.106;2023-08-08T01:48:59;2.10;;;1.60;;
3767;SDS011;1899;49.966;7.106;2023-08-08T01:51:25;2.33;;;2.13;;
3767;SDS011;1899;49.966;7.106;2023-08-08T01:53:50;3.83;;;1.63;;
3767;SDS011;1899;49.966;7.106;2023-08-08T01:56:16;3.00;;;2.00;;
3767;SDS011;1899;49.966;7.106;2023-08-08T01:58:41;4.00;;;2.27;;
3767;SDS011;1899;49.966;7.106;2023-08-08T02:01:06;2.33;;;1.60;;
3767;SDS011;1899;49.966;7.106;2023-08-08T02:03:31;2.13;;;1.93;;
3767;SDS011;1899;49.966;7.106;2023-08-08T02:05:56;5.00;;;2.47;;
3767;SDS011;1899;49.966;7.106;2023-08-08T02:08:22;2.73;;;1.97;;
3767;SDS011;1899;49.966;7.106;2023-08-08T02:10:47;2.03;;;1.93;;
3767;SDS011;1899;49.966;7.106;2023-08-08T02:13:12;2.67;;;1.30;;
3767;SDS011;1899;49.966;7.106;2023-08-08T02:15:37;1.70;;;1.60;;
3767;SDS011;1899;49.966;7.106;2023-08-08T02:18:03;6.50;;;1.70;;
3767;SDS011;1899;49.966;7.106;2023-08-08T02:20:29;1.60;;;1.50;;
3767;SDS011;1899;49.966;7.106;2023-08-08T02:22:54;2.57;;;2.00;;
3767;SDS011;1899;49.966;7.106;2023-08-08T02:25:19;2.67;;;1.70;;
3767;SDS011;1899;49.966;7.106;2023-08-08T02:27:45;2.90;;;1.80;;
3767;SDS011;1899;49.966;7.106;2023-08-08T02:30:10;2.53;;;1.90;;
3767;SDS011;1899;49.966;7.106;2023-08-08T02:32:36;4.00;;;2.33;;
3767;SDS011;1899;49.966;7.106;2023-08-08T02:35:01;3.40;;;2.00;;
3767;SDS011;1899;49.966;7.106;2023-08-08T02:37:26;4.57;;;2.27;;
3767;SDS011;1899;49.966;7.106;2023-08-08T02:39:52;2.13;;;1.60;;
3767;SDS011;1899;49.966;7.106;2023-08-08T02:42:17;2.97;;;2.17;;
3767;SDS011;1899;49.966;7.106;2023-08-08T02:44:42;1.87;;;1.77;;
3767;SDS011;1899;49.966;7.106;2023-08-08T02:47:08;2.33;;;2.13;;
3767;SDS011;1899;49.966;7.106;2023-08-08T02:49:33;1.60;;;1.50;;
3767;SDS011;1899;49.966;7.106;2023-08-08T02:51:59;4.03;;;2.37;;
3767;SDS011;1899;49.966;7.106;2023-08-08T02:54:24;3.90;;;2.10;;
3767;SDS011;1899;49.966;7.106;2023-08-08T02:56:50;2.20;;;1.47;;
3767;SDS011;1899;49.966;7.106;2023-08-08T02:59:15;2.37;;;2.10;;
3767;SDS011;1899;49.966;7.106;2023-08-08T03:01:41;2.40;;;1.77;;
3767;SDS011;1899;49.966;7.106;2023-08-08T03:04:06;2.37;;;2.17;;
3767;SDS011;1899;49.966;7.106;2023-08-08T03:06:31;4.60;;;2.10;;
3767;SDS011;1899;49.966;7.106;2023-08-08T03:08:56;2.07;;;1.87;;
3767;SDS011;1899;49.966;7.106;2023-08-08T03:11:22;2.90;;;1.90;;
3767;SDS011;1899;49.966;7.106;2023-08-08T03:13:47;3.70;;;2.90;;
3767;SDS011;1899;49.966;7.106;2023-08-08T03:16:12;2.20;;;1.80;;
3767;SDS011;1899;49.966;7.106;2023-08-08T03:18:37;3.17;;;2.30;;
3767;SDS011;1899;49.966;7.106;2023-08-08T03:21:03;3.67;;;1.53;;
3767;SDS011;1899;49.966;7.106;2023-08-08T03:23:28;1.80;;;1.70;;
3767;SDS011;1899;49.966;7.106;2023-08-08T03:25:53;1.97;;;1.80;;
3767;SDS011;1899;49.966;7.106;2023-08-08T03:28:18;4.73;;;2.63;;
3767;SDS011;1899;49.966;7.106;2023-08-08T03:30:44;3.53;;;1.93;;
3767;SDS011;1899;49.966;7.106;2023-08-08T03:33:09;2.87;;;1.80;;
3767;SDS011;1899;49.966;7.106;2023-08-08T03:35:34;3.57;;;1.60;;
3767;SDS011;1899;49.966;7.106;2023-08-08T03:37:59;2.00;;;1.90;;
3767;SDS011;1899;49.966;7.106;2023-08-08T03:40:25;3.57;;;2.30;;
3767;SDS011;1899;49.966;7.106;2023-08-08T03:42:50;2.97;;;2.20;;
3767;SDS011;1899;49.966;7.106;2023-08-08T03:45:15;4.60;;;2.40;;
3767;SDS011;1899;49.966;7.106;2023-08-08T03:47:40;2.97;;;2.10;;
3767;SDS011;1899;49.966;7.106;2023-08-08T03:50:06;3.93;;;1.73;;
3767;SDS011;1899;49.966;7.106;2023-08-08T03:52:32;2.13;;;1.93;;
3767;SDS011;1899;49.966;7.106;2023-08-08T03:54:59;2.03;;;1.87;;
3767;SDS011;1899;49.966;7.106;2023-08-08T03:57:24;2.73;;;2.23;;
3767;SDS011;1899;49.966;7.106;2023-08-08T03:59:49;1.83;;;1.70;;
3767;SDS011;1899;49.966;7.106;2023-08-08T04:02:15;4.60;;;2.60;;
3767;SDS011;1899;49.966;7.106;2023-08-08T04:04:40;2.37;;;1.80;;
3767;SDS011;1899;49.966;7.106;2023-08-08T04:07:05;3.20;;;1.90;;
3767;SDS011;1899;49.966;7.106;2023-08-08T04:09:30;2.43;;;2.20;;
3767;SDS011;1899;49.966;7.106;2023-08-08T04:11:56;2.90;;;1.83;;
3767;SDS011;1899;49.966;7.106;2023-08-08T04:14:21;2.33;;;2.03;;
3767;SDS011;1899;49.966;7.106;2023-08-08T04:16:47;2.40;;;1.87;;
3767;SDS011;1899;49.966;7.106;2023-08-08T04:19:12;2.90;;;2.37;;
3767;SDS011;1899;49.966;7.106;2023-08-08T04:21:37;4.30;;;3.50;;
3767;SDS011;1899;49.966;7.106;2023-08-08T04:24:02;28.43;;;5.67;;
3767;SDS011;1899;49.966;7.106;2023-08-08T04:26:28;6.93;;;3.93;;
3767;SDS011;1899;49.966;7.106;2023-08-08T04:28:53;15.50;;;4.43;;
3767;SDS011;1899;49.966;7.106;2023-08-08T04:31:20;12.10;;;3.90;;
3767;SDS011;1899;49.966;7.106;2023-08-08T04:33:45;6.70;;;3.90;;
3767;SDS011;1899;49.966;7.106;2023-08-08T04:36:10;22.57;;;5.10;;
3767;SDS011;1899;49.966;7.106;2023-08-08T04:38:36;4.83;;;3.17;;
3767;SDS011;1899;49.966;7.106;2023-08-08T04:41:01;4.50;;;2.60;;
3767;SDS011;1899;49.966;7.106;2023-08-08T04:43:26;3.70;;;2.80;;
3767;SDS011;1899;49.966;7.106;2023-08-08T04:45:53;3.90;;;3.27;;
3767;SDS011;1899;49.966;7.106;2023-08-08T04:48:18;3.53;;;3.23;;
3767;SDS011;1899;49.966;7.106;2023-08-08T04:50:45;3.70;;;2.70;;
3767;SDS011;1899;49.966;7.106;2023-08-08T04:53:10;4.03;;;2.87;;
3767;SDS011;1899;49.966;7.106;2023-08-08T04:55:36;2.03;;;1.93;;
3767;SDS011;1899;49.966;7.106;2023-08-08T04:58:01;3.80;;;2.70;;
3767;SDS011;1899;49.966;7.106;2023-08-08T05:00:26;5.53;;;3.13;;
3767;SDS011;1899;49.966;7.106;2023-08-08T05:02:51;5.03;;;3.10;;
3767;SDS011;1899;49.966;7.106;2023-08-08T05:05:17;3.90;;;2.43;;
3767;SDS011;1899;49.966;7.106;2023-08-08T05:07:42;3.53;;;3.00;;
3767;SDS011;1899;49.966;7.106;2023-08-08T05:10:07;2.60;;;2.40;;
3767;SDS011;1899;49.966;7.106;2023-08-08T05:12:32;3.43;;;3.00;;
3767;SDS011;1899;49.966;7.106;2023-08-08T05:14:58;2.43;;;2.17;;
3767;SDS011;1899;49.966;7.106;2023-08-08T05:17:23;5.67;;;2.50;;
3767;SDS011;1899;49.966;7.106;2023-08-08T05:19:48;13.20;;;2.80;;
3767;SDS011;1899;49.966;7.106;2023-08-08T05:22:14;2.13;;;1.93;;
3767;SDS011;1899;49.966;7.106;2023-08-08T05:24:39;3.37;;;2.20;;
3767;SDS011;1899;49.966;7.106;2023-08-08T05:27:04;3.10;;;2.43;;
3767;SDS011;1899;49.966;7.106;2023-08-08T05:29:30;3.93;;;3.00;;
3767;SDS011;1899;49.966;7.106;2023-08-08T05:31:55;4.63;;;2.20;;
3767;SDS011;1899;49.966;7.106;2023-08-08T05:34:21;3.93;;;2.40;;
3767;SDS011;1899;49.966;7.106;2023-08-08T05:36:47;4.70;;;3.33;;
3767;SDS011;1899;49.966;7.106;2023-08-08T05:39:12;4.53;;;2.77;;
3767;SDS011;1899;49.966;7.106;2023-08-08T05:41:37;5.70;;;2.90;;
3767;SDS011;1899;49.966;7.106;2023-08-08T05:44:03;4.33;;;3.03;;
3767;SDS011;1899;49.966;7.106;2023-08-08T05:46:28;3.07;;;2.57;;
3767;SDS011;1899;49.966;7.106;2023-08-08T05:48:53;3.40;;;3.10;;
3767;SDS011;1899;49.966;7.106;2023-08-08T05:51:18;5.57;;;3.63;;
3767;SDS011;1899;49.966;7.106;2023-08-08T05:53:44;3.63;;;3.20;;
3767;SDS011;1899;49.966;7.106;2023-08-08T05:56:09;6.27;;;3.60;;
3767;SDS011;1899;49.966;7.106;2023-08-08T05:58:34;5.97;;;4.67;;
3767;SDS011;1899;49.966;7.106;2023-08-08T06:01:01;8.20;;;5.00;;
3767;SDS011;1899;49.966;7.106;2023-08-08T06:03:27;4.93;;;4.27;;
3767;SDS011;1899;49.966;7.106;2023-08-08T06:05:53;6.20;;;3.77;;
3767;SDS011;1899;49.966;7.106;2023-08-08T06:08:18;4.27;;;3.67;;
3767;SDS011;1899;49.966;7.106;2023-08-08T06:10:43;5.33;;;2.60;;
3767;SDS011;1899;49.966;7.106;2023-08-08T06:13:08;5.20;;;2.03;;
3767;SDS011;1899;49.966;7.106;2023-08-08T06:15:34;3.17;;;2.70;;
3767;SDS011;1899;49.966;7.106;2023-08-08T06:17:59;2.50;;;2.30;;
3767;SDS011;1899;49.966;7.106;2023-08-08T06:20:24;4.43;;;2.63;;
3767;SDS011;1899;49.966;7.106;2023-08-08T06:22:51;2.30;;;2.10;;
3767;SDS011;1899;49.966;7.106;2023-08-08T06:25:16;2.80;;;2.50;;
3767;SDS011;1899;49.966;7.106;2023-08-08T06:27:42;6.17;;;2.60;;
3767;SDS011;1899;49.966;7.106;2023-08-08T06:30:07;4.07;;;2.50;;
3767;SDS011;1899;49.966;7.106;2023-08-08T06:32:33;2.10;;;1.87;;
3767;SDS011;1899;49.966;7.106;2023-08-08T06:34:59;3.13;;;2.13;;
3767;SDS011;1899;49.966;7.106;2023-08-08T06:37:24;5.37;;;2.23;;
3767;SDS011;1899;49.966;7.106;2023-08-08T06:39:49;2.60;;;2.17;;
3767;SDS011;1899;49.966;7.106;2023-08-08T06:42:15;4.03;;;1.77;;
3767;SDS011;1899;49.966;7.106;2023-08-08T06:44:41;3.80;;;1.87;;
3767;SDS011;1899;49.966;7.106;2023-08-08T06:47:07;3.00;;;2.70;;
3767;SDS011;1899;49.966;7.106;2023-08-08T06:49:32;3.63;;;2.90;;
3767;SDS011;1899;49.966;7.106;2023-08-08T06:51:57;4.63;;;2.17;;
3767;SDS011;1899;49.966;7.106;2023-08-08T06:54:22;2.53;;;2.00;;
3767;SDS011;1899;49.966;7.106;2023-08-08T06:56:48;5.30;;;2.20;;
3767;SDS011;1899;49.966;7.106;2023-08-08T06:59:13;4.40;;;2.57;;
3767;SDS011;1899;49.966;7.106;2023-08-08T07:01:38;3.77;;;2.07;;
3767;SDS011;1899;49.966;7.106;2023-08-08T07:04:03;5.80;;;2.40;;
3767;SDS011;1899;49.966;7.106;2023-08-08T07:06:29;2.90;;;2.10;;
3767;SDS011;1899;49.966;7.106;2023-08-08T07:08:54;5.70;;;2.07;;
3767;SDS011;1899;49.966;7.106;2023-08-08T07:11:19;3.07;;;2.60;;
3767;SDS011;1899;49.966;7.106;2023-08-08T07:13:45;3.13;;;2.10;;
3767;SDS011;1899;49.966;7.106;2023-08-08T07:16:10;8.53;;;1.97;;
3767;SDS011;1899;49.966;7.106;2023-08-08T07:18:36;3.50;;;2.20;;
3767;SDS011;1899;49.966;7.106;2023-08-08T07:21:02;5.10;;;2.40;;
3767;SDS011;1899;49.966;7.106;2023-08-08T07:23:28;2.97;;;2.07;;
3767;SDS011;1899;49.966;7.106;2023-08-08T07:25:53;5.77;;;2.17;;
3767;SDS011;1899;49.966;7.106;2023-08-08T07:28:19;5.90;;;1.80;;
3767;SDS011;1899;49.966;7.106;2023-08-08T07:30:44;4.17;;;2.30;;
3767;SDS011;1899;49.966;7.106;2023-08-08T07:33:09;3.60;;;2.00;;
3767;SDS011;1899;49.966;7.106;2023-08-08T07:35:35;3.53;;;1.90;;
3767;SDS011;1899;49.966;7.106;2023-08-08T07:38:00;2.87;;;1.90;;
3767;SDS011;1899;49.966;7.106;2023-08-08T07:40:25;3.43;;;1.87;;
3767;SDS011;1899;49.966;7.106;2023-08-08T07:42:50;5.13;;;2.30;;
3767;SDS011;1899;49.966;7.106;2023-08-08T07:45:16;2.80;;;2.17;;
3767;SDS011;1899;49.966;7.106;2023-08-08T07:47:41;4.80;;;2.10;;
3767;SDS011;1899;49.966;7.106;2023-08-08T07:50:07;4.10;;;3.57;;
3767;SDS011;1899;49.966;7.106;2023-08-08T07:52:36;5.13;;;2.57;;
3767;SDS011;1899;49.966;7.106;2023-08-08T07:55:01;3.63;;;2.37;;
3767;SDS011;1899;49.966;7.106;2023-08-08T07:57:27;3.93;;;2.40;;
3767;SDS011;1899;49.966;7.106;2023-08-08T07:59:52;6.20;;;2.87;;
3767;SDS011;1899;49.966;7.106;2023-08-08T08:02:17;3.53;;;2.60;;
3767;SDS011;1899;49.966;7.106;2023-08-08T08:04:42;3.83;;;2.57;;
3767;SDS011;1899;49.966;7.106;2023-08-08T08:07:08;4.20;;;3.20;;
3767;SDS011;1899;49.966;7.106;2023-08-08T08:09:33;3.30;;;2.20;;
3767;SDS011;1899;49.966;7.106;2023-08-08T08:11:58;7.70;;;2.73;;
3767;SDS011;1899;49.966;7.106;2023-08-08T08:14:23;7.23;;;2.90;;
3767;SDS011;1899;49.966;7.106;2023-08-08T08:16:49;3.47;;;1.97;;
3767;SDS011;1899;49.966;7.106;2023-08-08T08:19:15;6.90;;;2.27;;
3767;SDS011;1899;49.966;7.106;2023-08-08T08:21:40;3.67;;;2.40;;
3767;SDS011;1899;49.966;7.106;2023-08-08T08:24:05;4.60;;;2.57;;
3767;SDS011;1899;49.966;7.106;2023-08-08T08:26:31;2.67;;;2.03;;
3767;SDS011;1899;49.966;7.106;2023-08-08T08:28:57;5.43;;;3.10;;
3767;SDS011;1899;49.966;7.106;2023-08-08T08:31:22;4.63;;;2.83;;
3767;SDS011;1899;49.966;7.106;2023-08-08T08:33:47;4.60;;;2.63;;
3767;SDS011;1899;49.966;7.106;2023-08-08T08:36:12;4.77;;;2.33;;
3767;SDS011;1899;49.966;7.106;2023-08-08T08:38:38;3.87;;;2.07;;
3767;SDS011;1899;49.966;7.106;2023-08-08T08:41:03;2.83;;;2.30;;
3767;SDS011;1899;49.966;7.106;2023-08-08T08:43:30;4.43;;;2.60;;
3767;SDS011;1899;49.966;7.106;2023-08-08T08:45:55;3.83;;;2.13;;
3767;SDS011;1899;49.966;7.106;2023-08-08T08:48:22;5.80;;;2.90;;
3767;SDS011;1899;49.966;7.106;2023-08-08T08:50:48;2.67;;;2.20;;
3767;SDS011;1899;49.966;7.106;2023-08-08T08:53:13;4.80;;;2.80;;
3767;SDS011;1899;49.966;7.106;2023-08-08T08:55:39;4.50;;;2.23;;
3767;SDS011;1899;49.966;7.106;2023-08-08T08:58:05;3.60;;;2.00;;
3767;SDS011;1899;49.966;7.106;2023-08-08T09:00:30;3.97;;;2.27;;
3767;SDS011;1899;49.966;7.106;2023-08-08T09:02:56;5.27;;;2.23;;
3767;SDS011;1899;49.966;7.106;2023-08-08T09:05:21;6.20;;;1.97;;
3767;SDS011;1899;49.966;7.106;2023-08-08T09:07:47;3.33;;;1.97;;
3767;SDS011;1899;49.966;7.106;2023-08-08T09:10:13;6.90;;;2.60;;
3767;SDS011;1899;49.966;7.106;2023-08-08T09:12:40;3.83;;;2.37;;
3767;SDS011;1899;49.966;7.106;2023-08-08T09:15:05;4.17;;;2.67;;
3767;SDS011;1899;49.966;7.106;2023-08-08T09:17:31;2.67;;;2.30;;
3767;SDS011;1899;49.966;7.106;2023-08-08T09:19:56;4.00;;;2.20;;
3767;SDS011;1899;49.966;7.106;2023-08-08T09:22:23;2.80;;;2.10;;
3767;SDS011;1899;49.966;7.106;2023-08-08T09:24:49;4.93;;;2.20;;
3767;SDS011;1899;49.966;7.106;2023-08-08T09:27:14;4.97;;;2.00;;
3767;SDS011;1899;49.966;7.106;2023-08-08T09:29:40;2.17;;;1.97;;
3767;SDS011;1899;49.966;7.106;2023-08-08T09:32:05;5.10;;;2.00;;
3767;SDS011;1899;49.966;7.106;2023-08-08T09:34:31;5.63;;;2.10;;
3767;SDS011;1899;49.966;7.106;2023-08-08T09:36:56;7.03;;;2.33;;
3767;SDS011;1899;49.966;7.106;2023-08-08T09:39:21;4.23;;;2.37;;
3767;SDS011;1899;49.966;7.106;2023-08-08T09:41:47;4.20;;;2.20;;
3767;SDS011;1899;49.966;7.106;2023-08-08T09:44:12;4.60;;;1.83;;
3767;SDS011;1899;49.966;7.106;2023-08-08T09:46:37;14.40;;;2.57;;
3767;SDS011;1899;49.966;7.106;2023-08-08T09:49:03;3.03;;;2.03;;
3767;SDS011;1899;49.966;7.106;2023-08-08T09:51:29;4.20;;;2.10;;
3767;SDS011;1899;49.966;7.106;2023-08-08T09:53:55;5.60;;;2.00;;
3767;SDS011;1899;49.966;7.106;2023-08-08T09:56:21;3.13;;;1.97;;
3767;SDS011;1899;49.966;7.106;2023-08-08T09:58:48;3.03;;;2.17;;
3767;SDS011;1899;49.966;7.106;2023-08-08T10:01:13;2.80;;;2.20;;
3767;SDS011;1899;49.966;7.106;2023-08-08T10:03:39;4.90;;;2.27;;
3767;SDS011;1899;49.966;7.106;2023-08-08T10:06:08;3.00;;;2.27;;
3767;SDS011;1899;49.966;7.106;2023-08-08T10:08:34;3.80;;;2.43;;
3767;SDS011;1899;49.966;7.106;2023-08-08T10:10:59;3.40;;;2.23;;
3767;SDS011;1899;49.966;7.106;2023-08-08T10:13:26;2.63;;;1.60;;
3767;SDS011;1899;49.966;7.106;2023-08-08T10:15:52;5.73;;;2.27;;
3767;SDS011;1899;49.966;7.106;2023-08-08T10:18:17;4.93;;;2.70;;
3767;SDS011;1899;49.966;7.106;2023-08-08T10:20:44;6.13;;;2.20;;
3767;SDS011;1899;49.966;7.106;2023-08-08T10:23:14;4.77;;;1.97;;
3767;SDS011;1899;49.966;7.106;2023-08-08T10:25:43;3.13;;;1.50;;
3767;SDS011;1899;49.966;7.106;2023-08-08T10:28:09;3.33;;;1.87;;
3767;SDS011;1899;49.966;7.106;2023-08-08T10:30:41;2.70;;;1.57;;
3767;SDS011;1899;49.966;7.106;2023-08-08T10:33:14;8.73;;;2.30;;
3767;SDS011;1899;49.966;7.106;2023-08-08T10:35:40;2.80;;;1.70;;
3767;SDS011;1899;49.966;7.106;2023-08-08T10:38:08;3.30;;;1.63;;
3767;SDS011;1899;49.966;7.106;2023-08-08T10:40:34;4.60;;;2.00;;
3767;SDS011;1899;49.966;7.106;2023-08-08T10:42:59;4.80;;;1.67;;
3767;SDS011;1899;49.966;7.106;2023-08-08T10:45:34;2.93;;;1.70;;
3767;SDS011;1899;49.966;7.106;2023-08-08T10:48:07;1.53;;;1.20;;
3767;SDS011;1899;49.966;7.106;2023-08-08T10:50:32;4.80;;;1.60;;
3767;SDS011;1899;49.966;7.106;2023-08-08T10:53:02;2.53;;;1.37;;
3767;SDS011;1899;49.966;7.106;2023-08-08T10:55:33;3.90;;;1.50;;
3767;SDS011;1899;49.966;7.106;2023-08-08T10:58:04;3.57;;;1.67;;
3767;SDS011;1899;49.966;7.106;2023-08-08T11:00:30;2.83;;;1.50;;
3767;SDS011;1899;49.966;7.106;2023-08-08T11:02:56;2.00;;;1.50;;
3767;SDS011;1899;49.966;7.106;2023-08-08T11:05:23;2.80;;;1.30;;
3767;SDS011;1899;49.966;7.106;2023-08-08T11:07:48;5.00;;;2.00;;
3767;SDS011;1899;49.966;7.106;2023-08-08T11:10:14;2.60;;;1.53;;
3767;SDS011;1899;49.966;7.106;2023-08-08T11:12:39;5.03;;;2.00;;
3767;SDS011;1899;49.966;7.106;2023-08-08T11:15:04;4.47;;;1.60;;
3767;SDS011;1899;49.966;7.106;2023-08-08T11:17:30;2.43;;;1.40;;
3767;SDS011;1899;49.966;7.106;2023-08-08T11:19:56;3.23;;;1.87;;
3767;SDS011;1899;49.966;7.106;2023-08-08T11:22:21;2.80;;;1.40;;
3767;SDS011;1899;49.966;7.106;2023-08-08T11:24:48;3.07;;;1.47;;
3767;SDS011;1899;49.966;7.106;2023-08-08T11:27:14;3.37;;;1.87;;
3767;SDS011;1899;49.966;7.106;2023-08-08T11:29:40;4.40;;;1.73;;
3767;SDS011;1899;49.966;7.106;2023-08-08T11:32:05;2.23;;;1.20;;
3767;SDS011;1899;49.966;7.106;2023-08-08T11:34:32;1.63;;;1.20;;
3767;SDS011;1899;49.966;7.106;2023-08-08T11:36:59;2.60;;;1.30;;
3767;SDS011;1899;49.966;7.106;2023-08-08T11:39:24;2.87;;;1.40;;
3767;SDS011;1899;49.966;7.106;2023-08-08T11:41:51;2.63;;;1.40;;
3767;SDS011;1899;49.966;7.106;2023-08-08T11:44:17;2.73;;;1.40;;
3767;SDS011;1899;49.966;7.106;2023-08-08T11:46:43;3.10;;;1.60;;
3767;SDS011;1899;49.966;7.106;2023-08-08T11:49:08;2.27;;;1.30;;
3767;SDS011;1899;49.966;7.106;2023-08-08T11:51:34;3.93;;;1.27;;
3767;SDS011;1899;49.966;7.106;2023-08-08T11:54:00;2.03;;;1.10;;
3767;SDS011;1899;49.966;7.106;2023-08-08T11:56:26;2.50;;;1.20;;
3767;SDS011;1899;49.966;7.106;2023-08-08T11:58:51;2.57;;;1.23;;
3767;SDS011;1899;49.966;7.106;2023-08-08T12:01:24;2.17;;;1.40;;
3767;SDS011;1899;49.966;7.106;2023-08-08T12:03:49;1.63;;;1.23;;
3767;SDS011;1899;49.966;7.106;2023-08-08T12:06:15;4.93;;;1.67;;
3767;SDS011;1899;49.966;7.106;2023-08-08T12:08:44;5.67;;;1.27;;
3767;SDS011;1899;49.966;7.106;2023-08-08T12:11:10;2.33;;;1.10;;
3767;SDS011;1899;49.966;7.106;2023-08-08T12:13:37;2.57;;;1.30;;
3767;SDS011;1899;49.966;7.106;2023-08-08T12:16:04;1.60;;;1.00;;
3767;SDS011;1899;49.966;7.106;2023-08-08T12:18:31;2.70;;;1.37;;
3767;SDS011;1899;49.966;7.106;2023-08-08T12:20:57;3.40;;;1.30;;
3767;SDS011;1899;49.966;7.106;2023-08-08T12:23:22;2.00;;;1.20;;
3767;SDS011;1899;49.966;7.106;2023-08-08T12:25:47;1.53;;;0.97;;
3767;SDS011;1899;49.966;7.106;2023-08-08T12:28:13;3.20;;;1.10;;
3767;SDS011;1899;49.966;7.106;2023-08-08T12:30:38;3.00;;;1.50;;
3767;SDS011;1899;49.966;7.106;2023-08-08T12:33:03;1.67;;;1.30;;
3767;SDS011;1899;49.966;7.106;2023-08-08T12:35:28;3.80;;;1.53;;
3767;SDS011;1899;49.966;7.106;2023-08-08T12:37:54;2.53;;;1.10;;
3767;SDS011;1899;49.966;7.106;2023-08-08T12:40:19;2.20;;;1.20;;
3767;SDS011;1899;49.966;7.106;2023-08-08T12:42:44;1.73;;;1.20;;
3767;SDS011;1899;49.966;7.106;2023-08-08T12:45:10;3.23;;;1.37;;
3767;SDS011;1899;49.966;7.106;2023-08-08T12:47:36;2.50;;;1.40;;
3767;SDS011;1899;49.966;7.106;2023-08-08T12:50:03;7.57;;;1.90;;
3767;SDS011;1899;49.966;7.106;2023-08-08T12:52:28;2.30;;;1.20;;
3767;SDS011;1899;49.966;7.106;2023-08-08T12:54:54;10.50;;;3.50;;
3767;SDS011;1899;49.966;7.106;2023-08-08T12:57:19;17.17;;;5.50;;
3767;SDS011;1899;49.966;7.106;2023-08-08T12:59:44;7.47;;;2.93;;
3767;SDS011;1899;49.966;7.106;2023-08-08T13:02:10;5.43;;;1.93;;
3767;SDS011;1899;49.966;7.106;2023-08-08T13:04:35;3.27;;;1.40;;
3767;SDS011;1899;49.966;7.106;2023-08-08T13:07:00;5.13;;;1.93;;
3767;SDS011;1899;49.966;7.106;2023-08-08T13:09:26;2.60;;;1.10;;
3767;SDS011;1899;49.966;7.106;2023-08-08T13:11:51;2.47;;;1.30;;
3767;SDS011;1899;49.966;7.106;2023-08-08T13:14:16;2.20;;;1.30;;
3767;SDS011;1899;49.966;7.106;2023-08-08T13:16:41;2.90;;;1.10;;
3767;SDS011;1899;49.966;7.106;2023-08-08T13:19:07;3.83;;;1.43;;
3767;SDS011;1899;49.966;7.106;2023-08-08T13:21:32;3.47;;;1.73;;
3767;SDS011;1899;49.966;7.106;2023-08-08T13:23:57;19.57;;;2.10;;
3767;SDS011;1899;49.966;7.106;2023-08-08T13:26:23;2.20;;;1.33;;
3767;SDS011;1899;49.966;7.106;2023-08-08T13:28:48;1.50;;;1.13;;
3767;SDS011;1899;49.966;7.106;2023-08-08T13:31:15;2.93;;;1.37;;
3767;SDS011;1899;49.966;7.106;2023-08-08T13:33:40;2.30;;;1.13;;
3767;SDS011;1899;49.966;7.106;2023-08-08T13:36:06;5.97;;;1.67;;
3767;SDS011;1899;49.966;7.106;2023-08-08T13:38:31;3.70;;;1.33;;
3767;SDS011;1899;49.966;7.106;2023-08-08T13:40:56;1.90;;;1.70;;
3767;SDS011;1899;49.966;7.106;2023-08-08T13:43:22;2.30;;;1.43;;
3767;SDS011;1899;49.966;7.106;2023-08-08T13:45:47;4.07;;;1.50;;
3767;SDS011;1899;49.966;7.106;2023-08-08T13:48:12;5.63;;;1.90;;
3767;SDS011;1899;49.966;7.106;2023-08-08T13:50:37;1.40;;;1.30;;
3767;SDS011;1899;49.966;7.106;2023-08-08T13:53:03;3.63;;;1.20;;
3767;SDS011;1899;49.966;7.106;2023-08-08T13:55:28;4.00;;;1.83;;
3767;SDS011;1899;49.966;7.106;2023-08-08T13:57:54;2.77;;;1.57;;
3767;SDS011;1899;49.966;7.106;2023-08-08T14:00:20;7.77;;;2.13;;
3767;SDS011;1899;49.966;7.106;2023-08-08T14:02:46;1.93;;;1.20;;
3767;SDS011;1899;49.966;7.106;2023-08-08T14:05:12;3.20;;;1.87;;
3767;SDS011;1899;49.966;7.106;2023-08-08T14:07:37;2.73;;;1.87;;
3767;SDS011;1899;49.966;7.106;2023-08-08T14:10:02;1.70;;;1.20;;
3767;SDS011;1899;49.966;7.106;2023-08-08T14:12:29;3.10;;;1.57;;
3767;SDS011;1899;49.966;7.106;2023-08-08T14:14:54;4.13;;;2.03;;
3767;SDS011;1899;49.966;7.106;2023-08-08T14:17:19;3.10;;;1.70;;
3767;SDS011;1899;49.966;7.106;2023-08-08T14:19:44;2.40;;;1.60;;
3767;SDS011;1899;49.966;7.106;2023-08-08T14:22:10;4.37;;;1.50;;
3767;SDS011;1899;49.966;7.106;2023-08-08T14:24:35;5.77;;;2.00;;
3767;SDS011;1899;49.966;7.106;2023-08-08T14:27:01;2.77;;;1.93;;
3767;SDS011;1899;49.966;7.106;2023-08-08T14:29:26;3.00;;;1.70;;
3767;SDS011;1899;49.966;7.106;2023-08-08T14:31:51;2.27;;;1.60;;
3767;SDS011;1899;49.966;7.106;2023-08-08T14:34:16;4.93;;;1.97;;
3767;SDS011;1899;49.966;7.106;2023-08-08T14:36:42;2.87;;;1.97;;
3767;SDS011;1899;49.966;7.106;2023-08-08T14:39:07;2.80;;;1.70;;
3767;SDS011;1899;49.966;7.106;2023-08-08T14:41:33;5.63;;;2.73;;
3767;SDS011;1899;49.966;7.106;2023-08-08T14:43:58;6.90;;;1.80;;
3767;SDS011;1899;49.966;7.106;2023-08-08T14:46:23;4.10;;;1.80;;
3767;SDS011;1899;49.966;7.106;2023-08-08T14:48:48;3.57;;;1.90;;
3767;SDS011;1899;49.966;7.106;2023-08-08T14:51:14;3.57;;;1.53;;
3767;SDS011;1899;49.966;7.106;2023-08-08T14:53:42;2.43;;;1.70;;
3767;SDS011;1899;49.966;7.106;2023-08-08T14:56:07;4.70;;;2.17;;
3767;SDS011;1899;49.966;7.106;2023-08-08T14:58:33;2.00;;;1.70;;
3767;SDS011;1899;49.966;7.106;2023-08-08T15:01:00;2.00;;;1.70;;
3767;SDS011;1899;49.966;7.106;2023-08-08T15:03:25;2.80;;;1.50;;
3767;SDS011;1899;49.966;7.106;2023-08-08T15:05:50;3.30;;;1.70;;
3767;SDS011;1899;49.966;7.106;2023-08-08T15:08:16;4.30;;;1.93;;